createdAt,value
2018-09-12T00:01:01.653Z,12.6
2018-09-12T00:02:08.862Z,12.6
2018-09-12T00:03:16.072Z,12.5
2018-09-12T00:04:23.284Z,12.5
2018-09-12T00:05:30.499Z,12.5
2018-09-12T00:06:37.711Z,12.5
2018-09-12T00:07:44.922Z,12.5
2018-09-12T00:08:52.134Z,12.5
2018-09-12T00:09:59.349Z,12.5
2018-09-12T00:11:06.358Z,12.5
2018-09-12T00:12:13.571Z,12.5
2018-09-12T00:13:20.508Z,12.4
2018-09-12T00:14:27.441Z,12.4
2018-09-12T00:15:34.650Z,12.4
2018-09-12T00:16:41.862Z,12.4
2018-09-12T00:17:49.080Z,12.4
2018-09-12T00:18:56.293Z,12.4
2018-09-12T00:20:03.512Z,12.4
2018-09-12T00:21:10.899Z,12.4
2018-09-12T00:22:18.369Z,12.3
2018-09-12T00:23:25.577Z,12.3
2018-09-12T00:24:32.787Z,12.3
2018-09-12T00:25:39.994Z,12.3
2018-09-12T00:26:47.209Z,12.3
2018-09-12T00:27:54.414Z,12.3
2018-09-12T00:29:01.633Z,12.3
2018-09-12T00:30:08.843Z,12.2
2018-09-12T00:31:16.049Z,12.2
2018-09-12T00:32:23.265Z,12.2
2018-09-12T00:33:30.473Z,12.2
2018-09-12T00:34:37.683Z,12.2
2018-09-12T00:35:44.898Z,12.2
2018-09-12T00:36:52.115Z,12.2
2018-09-12T00:37:59.323Z,12.2
2018-09-12T00:39:06.533Z,12.1
2018-09-12T00:40:13.745Z,12.1
2018-09-12T00:41:20.975Z,12.1
2018-09-12T00:42:27.906Z,12.1
2018-09-12T00:43:35.121Z,12.1
2018-09-12T00:44:42.334Z,12.1
2018-09-12T00:45:49.545Z,12
2018-09-12T00:46:56.753Z,12
2018-09-12T00:48:03.960Z,12
2018-09-12T00:49:11.177Z,12
2018-09-12T00:50:18.392Z,12
2018-09-12T00:51:25.601Z,12.1
2018-09-12T00:52:32.812Z,12
2018-09-12T00:53:40.022Z,12
2018-09-12T00:54:46.960Z,12
2018-09-12T00:55:53.900Z,12
2018-09-12T00:57:00.836Z,12
2018-09-12T00:58:08.058Z,11.9
2018-09-12T00:59:15.276Z,11.9
2018-09-12T01:00:22.213Z,11.9
2018-09-12T01:01:29.152Z,11.9
2018-09-12T01:02:36.362Z,11.9
2018-09-12T01:03:43.573Z,11.9
2018-09-12T01:04:50.782Z,11.9
2018-09-12T01:05:57.996Z,11.9
2018-09-12T01:07:05.204Z,11.9
2018-09-12T01:08:12.419Z,11.9
2018-09-12T01:09:19.376Z,11.8
2018-09-12T01:10:26.580Z,11.9
2018-09-12T01:11:33.513Z,11.8
2018-09-12T01:12:40.725Z,11.8
2018-09-12T01:13:47.930Z,11.7
2018-09-12T01:14:55.143Z,11.7
2018-09-12T01:16:02.356Z,11.7
2018-09-12T01:17:09.573Z,11.7
2018-09-12T01:18:16.514Z,11.7
2018-09-12T01:19:23.727Z,11.6
2018-09-12T01:20:30.941Z,11.6
2018-09-12T01:21:38.150Z,11.6
2018-09-12T01:22:45.356Z,11.6
2018-09-12T01:23:52.567Z,11.6
2018-09-12T01:24:59.774Z,11.6
2018-09-12T01:26:06.987Z,11.6
2018-09-12T01:27:14.194Z,11.6
2018-09-12T01:28:21.407Z,11.6
2018-09-12T01:29:28.626Z,11.6
2018-09-12T01:30:35.559Z,11.6
2018-09-12T01:31:42.765Z,11.6
2018-09-12T01:32:49.976Z,11.6
2018-09-12T01:33:56.916Z,11.6
2018-09-12T01:35:04.124Z,11.5
2018-09-12T01:36:11.058Z,11.5
2018-09-12T01:37:18.269Z,11.5
2018-09-12T01:38:25.479Z,11.5
2018-09-12T01:39:32.693Z,11.5
2018-09-12T01:40:39.902Z,11.5
2018-09-12T01:41:47.151Z,11.6
2018-09-12T01:42:54.362Z,11.5
2018-09-12T01:44:01.571Z,11.5
2018-09-12T01:45:08.513Z,11.5
2018-09-12T01:46:15.460Z,11.5
2018-09-12T01:47:22.686Z,11.4
2018-09-12T01:48:29.900Z,11.5
2018-09-12T01:49:37.114Z,11.4
2018-09-12T01:50:44.323Z,11.5
2018-09-12T01:51:51.542Z,11.5
2018-09-12T01:52:58.755Z,11.4
2018-09-12T01:54:05.967Z,11.5
2018-09-12T01:55:13.221Z,11.4
2018-09-12T01:56:20.430Z,11.4
2018-09-12T01:57:27.363Z,11.4
2018-09-12T01:58:34.575Z,11.4
2018-09-12T01:59:41.784Z,11.4
2018-09-12T02:00:48.997Z,11.4
2018-09-12T02:01:56.209Z,11.3
2018-09-12T02:03:03.141Z,11.3
2018-09-12T02:04:10.351Z,11.3
2018-09-12T02:05:17.564Z,11.3
2018-09-12T02:06:24.773Z,11.3
2018-09-12T02:07:31.711Z,11.2
2018-09-12T02:08:38.920Z,11.2
2018-09-12T02:09:45.859Z,11.2
2018-09-12T02:10:53.069Z,11.2
2018-09-12T02:12:00.289Z,11.2
2018-09-12T02:13:07.500Z,11.2
2018-09-12T02:14:14.708Z,11.2
2018-09-12T02:15:21.914Z,11.1
2018-09-12T02:16:29.124Z,11.2
2018-09-12T02:17:36.058Z,11.2
2018-09-12T02:18:43.272Z,11.1
2018-09-12T02:19:50.480Z,11.1
2018-09-12T02:20:57.696Z,11.1
2018-09-12T02:22:04.916Z,11.1
2018-09-12T02:23:12.119Z,11.1
2018-09-12T02:24:19.327Z,11.1
2018-09-12T02:25:26.540Z,11.1
2018-09-12T02:26:33.751Z,11.1
2018-09-12T02:27:40.960Z,11
2018-09-12T02:28:48.173Z,11
2018-09-12T02:29:55.382Z,11.1
2018-09-12T02:31:02.589Z,11.1
2018-09-12T02:32:09.796Z,11
2018-09-12T02:33:17.014Z,11
2018-09-12T02:34:24.223Z,11
2018-09-12T02:35:31.447Z,11
2018-09-12T02:36:38.654Z,11
2018-09-12T02:37:45.866Z,11
2018-09-12T02:38:53.081Z,10.9
2018-09-12T02:40:00.285Z,10.9
2018-09-12T02:41:07.492Z,10.9
2018-09-12T02:42:14.705Z,10.9
2018-09-12T02:43:21.626Z,10.9
2018-09-12T02:44:28.837Z,10.8
2018-09-12T02:45:36.044Z,10.8
2018-09-12T02:46:42.976Z,10.8
2018-09-12T02:47:50.179Z,10.9
2018-09-12T02:48:57.390Z,10.8
2018-09-12T02:50:04.599Z,10.8
2018-09-12T02:51:11.812Z,10.7
2018-09-12T02:52:19.014Z,10.7
2018-09-12T02:53:26.219Z,10.7
2018-09-12T02:54:33.437Z,10.7
2018-09-12T02:55:40.634Z,10.8
2018-09-12T02:57:02.504Z,10.8
2018-09-12T02:58:09.439Z,10.8
2018-09-12T02:59:16.381Z,10.8
2018-09-12T03:00:23.595Z,10.7
2018-09-12T03:01:30.796Z,10.7
2018-09-12T03:02:37.460Z,10.7
2018-09-12T03:03:44.671Z,10.8
2018-09-12T03:04:51.886Z,10.8
2018-09-12T03:05:59.091Z,10.8
2018-09-12T03:07:06.298Z,10.8
2018-09-12T03:09:20.144Z,10.7
2018-09-12T03:10:27.355Z,10.8
2018-09-12T03:11:34.291Z,10.8
2018-09-12T03:12:41.500Z,10.8
2018-09-12T03:13:48.711Z,10.8
2018-09-12T03:14:55.922Z,10.7
2018-09-12T03:16:03.126Z,10.7
2018-09-12T03:17:10.337Z,10.7
2018-09-12T03:18:17.548Z,10.7
2018-09-12T03:19:24.752Z,10.6
2018-09-12T03:20:32.143Z,10.6
2018-09-12T03:21:39.619Z,10.6
2018-09-12T03:22:46.823Z,10.6
2018-09-12T03:23:54.047Z,10.6
2018-09-12T03:25:01.256Z,10.6
2018-09-12T03:26:08.468Z,10.6
2018-09-12T03:27:15.405Z,10.6
2018-09-12T03:28:22.619Z,10.6
2018-09-12T03:29:29.875Z,10.6
2018-09-12T03:30:37.082Z,10.6
2018-09-12T03:31:44.292Z,10.6
2018-09-12T03:32:51.232Z,10.6
2018-09-12T03:33:58.160Z,10.6
2018-09-12T03:35:05.375Z,10.5
2018-09-12T03:36:12.586Z,10.5
2018-09-12T03:37:19.796Z,10.4
2018-09-12T03:38:27.002Z,10.4
2018-09-12T03:39:34.212Z,10.4
2018-09-12T03:40:41.423Z,10.4
2018-09-12T03:41:48.632Z,10.4
2018-09-12T03:42:55.566Z,10.4
2018-09-12T03:44:02.779Z,10.4
2018-09-12T03:45:09.982Z,10.4
2018-09-12T03:46:17.195Z,10.4
2018-09-12T03:47:24.407Z,10.4
2018-09-12T03:48:31.623Z,10.4
2018-09-12T03:49:38.831Z,10.4
2018-09-12T03:50:46.042Z,10.4
2018-09-12T03:51:53.250Z,10.3
2018-09-12T03:53:00.456Z,10.4
2018-09-12T03:54:07.694Z,10.3
2018-09-12T03:55:14.901Z,10.3
2018-09-12T03:56:22.118Z,10.3
2018-09-12T03:57:29.342Z,10.2
2018-09-12T03:58:36.535Z,10.2
2018-09-12T03:59:43.746Z,10.2
2018-09-12T04:00:50.964Z,10.3
2018-09-12T04:01:58.170Z,10.3
2018-09-12T04:03:05.378Z,10.2
2018-09-12T04:04:12.321Z,10.2
2018-09-12T04:05:19.534Z,10.2
2018-09-12T04:06:26.744Z,10.1
2018-09-12T04:07:33.956Z,10.1
2018-09-12T04:08:41.162Z,10.2
2018-09-12T04:09:48.096Z,10.2
2018-09-12T04:10:55.032Z,10.1
2018-09-12T04:12:02.237Z,10.1
2018-09-12T04:13:09.446Z,10.1
2018-09-12T04:14:16.657Z,10.1
2018-09-12T04:15:23.857Z,10.1
2018-09-12T04:16:31.066Z,10.1
2018-09-12T04:17:38.278Z,10.1
2018-09-12T04:18:45.480Z,10
2018-09-12T04:19:52.692Z,10.1
2018-09-12T04:20:59.901Z,10.1
2018-09-12T04:22:07.120Z,10.1
2018-09-12T04:23:14.329Z,10
2018-09-12T04:24:21.638Z,10.1
2018-09-12T04:25:28.835Z,10.1
2018-09-12T04:26:36.044Z,10.1
2018-09-12T04:27:43.262Z,10.1
2018-09-12T04:28:50.469Z,10.1
2018-09-12T04:29:57.686Z,10.1
2018-09-12T04:31:04.909Z,10.1
2018-09-12T04:32:12.116Z,10.1
2018-09-12T04:33:19.323Z,10.1
2018-09-12T04:34:26.537Z,10.1
2018-09-12T04:35:33.751Z,10.1
2018-09-12T04:36:40.679Z,10.1
2018-09-12T04:37:47.890Z,10.1
2018-09-12T04:38:55.104Z,10.1
2018-09-12T04:40:02.312Z,10
2018-09-12T04:41:09.522Z,10
2018-09-12T04:42:16.738Z,10
2018-09-12T04:43:23.944Z,10
2018-09-12T04:44:31.164Z,9.9
2018-09-12T04:45:38.372Z,10
2018-09-12T04:46:45.312Z,10
2018-09-12T04:47:52.521Z,10
2018-09-12T04:48:59.733Z,10
2018-09-12T04:50:06.946Z,10
2018-09-12T04:51:14.158Z,9.9
2018-09-12T04:52:21.368Z,9.9
2018-09-12T04:53:28.576Z,9.8
2018-09-12T04:54:35.836Z,9.8
2018-09-12T04:55:43.034Z,9.8
2018-09-12T04:56:50.242Z,9.8
2018-09-12T04:57:57.444Z,9.9
2018-09-12T04:59:04.653Z,9.9
2018-09-12T05:00:11.866Z,9.9
2018-09-12T05:01:19.082Z,9.9
2018-09-12T05:02:26.013Z,9.9
2018-09-12T05:03:33.221Z,9.9
2018-09-12T05:04:40.431Z,9.9
2018-09-12T05:05:47.641Z,9.9
2018-09-12T05:06:54.851Z,9.9
2018-09-12T05:08:02.069Z,9.9
2018-09-12T05:09:09.281Z,9.9
2018-09-12T05:10:16.585Z,9.9
2018-09-12T05:11:24.121Z,9.9
2018-09-12T05:12:31.337Z,9.9
2018-09-12T05:13:38.552Z,9.9
2018-09-12T05:14:45.772Z,9.9
2018-09-12T05:15:53.004Z,9.9
2018-09-12T05:17:00.345Z,9.9
2018-09-12T05:18:07.559Z,9.9
2018-09-12T05:19:14.762Z,9.9
2018-09-12T05:20:21.965Z,9.9
2018-09-12T05:21:28.906Z,9.9
2018-09-12T05:22:36.119Z,9.9
2018-09-12T05:23:43.331Z,9.9
2018-09-12T05:24:50.572Z,10
2018-09-12T05:25:57.783Z,10
2018-09-12T05:27:05.008Z,10
2018-09-12T05:28:12.221Z,10
2018-09-12T05:29:19.422Z,10
2018-09-12T05:30:26.625Z,10
2018-09-12T05:31:33.837Z,10.1
2018-09-12T05:32:41.051Z,10.1
2018-09-12T05:33:47.980Z,10.1
2018-09-12T05:34:55.189Z,10.1
2018-09-12T05:36:02.400Z,10.2
2018-09-12T05:37:09.611Z,10.2
2018-09-12T05:38:16.548Z,10.2
2018-09-12T05:39:23.488Z,10.2
2018-09-12T05:40:30.704Z,10.3
2018-09-12T05:41:37.909Z,10.3
2018-09-12T05:42:45.154Z,10.3
2018-09-12T05:43:52.366Z,10.4
2018-09-12T05:44:59.571Z,10.4
2018-09-12T05:46:06.785Z,10.4
2018-09-12T05:47:14.000Z,10.5
2018-09-12T05:48:21.214Z,10.5
2018-09-12T05:49:28.442Z,10.5
2018-09-12T05:50:35.652Z,10.5
2018-09-12T05:51:42.870Z,10.5
2018-09-12T05:52:50.087Z,10.5
2018-09-12T05:53:57.295Z,10.5
2018-09-12T05:55:04.508Z,10.6
2018-09-12T05:56:11.709Z,10.6
2018-09-12T05:57:18.922Z,10.7
2018-09-12T05:58:26.129Z,10.7
2018-09-12T05:59:33.340Z,10.8
2018-09-12T06:00:40.552Z,10.8
2018-09-12T06:01:47.767Z,10.9
2018-09-12T06:02:54.976Z,10.9
2018-09-12T06:04:02.182Z,11
2018-09-12T06:05:09.395Z,11.1
2018-09-12T06:06:16.675Z,11.2
2018-09-12T06:07:24.171Z,11.3
2018-09-12T06:08:31.375Z,11.4
2018-09-12T06:09:38.311Z,11.5
2018-09-12T06:10:45.524Z,11.5
2018-09-12T06:11:52.731Z,11.6
2018-09-12T06:12:59.939Z,11.7
2018-09-12T06:14:07.256Z,11.8
2018-09-12T06:15:14.657Z,11.9
2018-09-12T06:16:21.596Z,12
2018-09-12T06:17:28.804Z,12
2018-09-12T06:18:35.463Z,12.2
2018-09-12T06:19:42.674Z,12.2
2018-09-12T06:20:49.608Z,12.4
2018-09-12T06:21:56.820Z,12.5
2018-09-12T06:23:04.032Z,12.7
2018-09-12T06:24:10.966Z,12.8
2018-09-12T06:25:18.180Z,12.9
2018-09-12T06:26:25.141Z,13
2018-09-12T06:27:32.349Z,13.2
2018-09-12T06:28:39.311Z,13.4
2018-09-12T06:29:46.237Z,13.5
2018-09-12T06:30:53.208Z,13.6
2018-09-12T06:32:00.575Z,13.8
2018-09-12T06:33:07.510Z,13.9
2018-09-12T06:34:14.449Z,14.1
2018-09-12T06:35:21.665Z,14.2
2018-09-12T06:36:28.874Z,14.3
2018-09-12T06:37:36.084Z,14.5
2018-09-12T06:38:43.532Z,14.6
2018-09-12T06:39:50.843Z,14.7
2018-09-12T06:40:58.056Z,14.8
2018-09-12T06:42:05.265Z,14.9
2018-09-12T06:43:12.475Z,15.2
2018-09-12T06:44:19.689Z,15.3
2018-09-12T06:45:26.901Z,15.6
2018-09-12T06:46:34.110Z,15.9
2018-09-12T06:47:41.323Z,16.1
2018-09-12T06:48:48.534Z,16.1
2018-09-12T06:49:55.746Z,16.1
2018-09-12T06:51:02.961Z,16.2
2018-09-12T06:52:10.170Z,16.3
2018-09-12T06:53:17.408Z,16.4
2018-09-12T06:54:24.624Z,16.5
2018-09-12T06:55:31.561Z,16.7
2018-09-12T06:56:38.502Z,17
2018-09-12T06:57:45.715Z,17.3
2018-09-12T06:58:52.925Z,17.5
2018-09-12T07:00:00.142Z,17.6
2018-09-12T07:01:07.514Z,17.7
2018-09-12T07:02:14.938Z,17.8
2018-09-12T07:03:22.153Z,18
2018-09-12T07:04:29.373Z,18.1
2018-09-12T07:05:36.302Z,18.3
2018-09-12T07:06:43.521Z,18.2
2018-09-12T07:07:50.740Z,18.2
2018-09-12T07:08:57.949Z,18.3
2018-09-12T07:10:05.156Z,18.4
2018-09-12T07:11:12.368Z,18.5
2018-09-12T07:12:19.582Z,18.6
2018-09-12T07:13:26.804Z,18.6
2018-09-12T07:14:34.011Z,18.6
2018-09-12T07:15:41.223Z,18.7
2018-09-12T07:16:48.448Z,18.8
2018-09-12T07:17:55.671Z,18.9
2018-09-12T07:19:02.898Z,18.9
2018-09-12T07:20:10.117Z,19
2018-09-12T07:21:17.326Z,19
2018-09-12T07:22:24.266Z,19
2018-09-12T07:23:31.481Z,19
2018-09-12T07:24:38.758Z,19.1
2018-09-12T07:25:46.016Z,19.2
2018-09-12T07:26:53.227Z,19.3
2018-09-12T07:28:00.458Z,19.3
2018-09-12T07:29:07.676Z,19.1
2018-09-12T07:30:14.619Z,19.1
2018-09-12T07:31:21.834Z,19.3
2018-09-12T07:32:29.044Z,19.5
2018-09-12T07:33:36.266Z,19.7
2018-09-12T07:34:43.526Z,19.8
2018-09-12T07:35:50.454Z,20
2018-09-12T07:36:57.671Z,20.1
2018-09-12T07:38:04.881Z,20.1
2018-09-12T07:39:12.100Z,20
2018-09-12T07:40:19.319Z,20
2018-09-12T07:41:26.544Z,20.1
2018-09-12T07:42:33.752Z,20.1
2018-09-12T07:43:40.969Z,20.3
2018-09-12T07:44:48.196Z,20.3
2018-09-12T07:45:55.406Z,20.4
2018-09-12T07:47:02.635Z,20.5
2018-09-12T07:48:09.848Z,20.5
2018-09-12T07:49:17.063Z,20.4
2018-09-12T07:50:24.007Z,20.3
2018-09-12T07:51:31.217Z,20.2
2018-09-12T07:52:38.430Z,20.3
2018-09-12T07:53:45.664Z,20.3
2018-09-12T07:54:52.878Z,20.5
2018-09-12T07:56:00.232Z,20.6
2018-09-12T07:57:07.566Z,20.7
2018-09-12T07:58:14.816Z,20.7
2018-09-12T07:59:21.743Z,20.9
2018-09-12T08:00:29.152Z,21.1
2018-09-12T08:01:36.301Z,21.1
2018-09-12T08:02:43.516Z,21.2
2018-09-12T08:03:50.736Z,21.4
2018-09-12T08:04:58.048Z,21.3
2018-09-12T08:06:05.396Z,21.4
2018-09-12T08:07:12.606Z,21.6
2018-09-12T08:08:19.829Z,21.7
2018-09-12T08:09:27.041Z,22
2018-09-12T08:10:34.261Z,22.2
2018-09-12T08:11:41.479Z,22.3
2018-09-12T08:12:48.692Z,22.4
2018-09-12T08:13:55.913Z,22.4
2018-09-12T08:15:03.130Z,22.5
2018-09-12T08:16:10.070Z,22.7
2018-09-12T08:17:17.287Z,22.9
2018-09-12T08:18:24.234Z,22.9
2018-09-12T08:19:31.451Z,22.9
2018-09-12T08:20:38.669Z,23
2018-09-12T08:21:45.884Z,23
2018-09-12T08:22:53.100Z,23.1
2018-09-12T08:24:00.318Z,23
2018-09-12T08:25:07.254Z,23
2018-09-12T08:26:14.558Z,23
2018-09-12T08:27:21.980Z,23.1
2018-09-12T08:28:28.925Z,23.1
2018-09-12T08:29:36.135Z,23.2
2018-09-12T08:30:43.077Z,23.2
2018-09-12T08:31:50.303Z,23.4
2018-09-12T08:32:57.516Z,23.3
2018-09-12T08:34:04.732Z,23.2
2018-09-12T08:35:11.946Z,23.4
2018-09-12T22:00:06.994Z,19.2
2018-09-12T22:01:14.206Z,19.2
2018-09-12T22:02:21.416Z,19.2
2018-09-12T22:03:28.630Z,19.2
2018-09-12T22:04:35.846Z,19.1
2018-09-12T22:05:43.062Z,19.1
2018-09-12T22:06:50.275Z,19.1
2018-09-12T22:07:57.582Z,19.1
2018-09-12T22:09:04.979Z,19.1
2018-09-12T22:10:12.191Z,19
2018-09-12T22:11:19.404Z,19
2018-09-12T22:12:26.620Z,19
2018-09-12T22:13:33.833Z,18.9
2018-09-12T22:14:41.043Z,18.8
2018-09-12T22:15:48.261Z,18.8
2018-09-12T22:16:55.484Z,18.8
2018-09-12T22:18:02.700Z,18.8
2018-09-12T22:19:09.916Z,18.7
2018-09-12T22:20:16.852Z,18.7
2018-09-12T22:21:24.064Z,18.7
2018-09-12T22:22:31.280Z,18.7
2018-09-12T22:23:38.225Z,18.6
2018-09-12T22:24:45.442Z,18.6
2018-09-12T22:25:52.387Z,18.6
2018-09-12T22:26:59.334Z,18.6
2018-09-12T22:28:06.544Z,18.6
2018-09-12T22:29:13.759Z,18.6
2018-09-12T22:30:20.975Z,18.6
2018-09-12T22:31:28.193Z,18.6
2018-09-12T22:32:35.405Z,18.6
2018-09-12T22:33:42.348Z,18.5
2018-09-12T22:34:49.562Z,18.6
2018-09-12T22:35:56.772Z,18.5
2018-09-12T22:37:03.722Z,18.5
2018-09-12T22:38:10.942Z,18.5
2018-09-12T22:39:17.888Z,18.4
2018-09-12T22:40:25.108Z,18.4
2018-09-12T22:41:32.329Z,18.4
2018-09-12T22:42:39.539Z,18.4
2018-09-12T22:43:46.754Z,18.4
2018-09-12T22:44:53.964Z,18.4
2018-09-12T22:46:01.186Z,18.3
2018-09-12T22:47:08.402Z,18.3
2018-09-12T22:48:15.618Z,18.3
2018-09-12T22:49:22.830Z,18.3
2018-09-12T22:50:29.771Z,18.2
2018-09-12T22:51:36.988Z,18.2
2018-09-12T22:52:44.203Z,18.2
2018-09-12T22:53:51.424Z,18.2
2018-09-12T22:54:58.676Z,18.1
2018-09-12T22:56:05.891Z,18.1
2018-09-12T22:57:13.103Z,18.2
2018-09-12T22:58:20.319Z,18.1
2018-09-12T22:59:27.530Z,18.1
2018-09-12T23:00:34.744Z,18.1
2018-09-12T23:01:41.681Z,18.1
2018-09-12T23:02:48.895Z,18.1
2018-09-12T23:03:56.129Z,18
2018-09-12T23:05:03.343Z,18
2018-09-12T23:06:10.561Z,18
2018-09-12T23:07:17.506Z,18
2018-09-12T23:08:24.720Z,18
2018-09-12T23:09:31.948Z,18
2018-09-12T23:10:39.159Z,17.9
2018-09-12T23:11:46.376Z,17.9
2018-09-12T23:12:53.037Z,17.9
2018-09-12T23:14:00.257Z,17.9
2018-09-12T23:15:07.466Z,17.9
2018-09-12T23:16:14.407Z,17.9
2018-09-12T23:17:21.082Z,17.9
2018-09-12T23:18:28.292Z,17.8
2018-09-12T23:19:35.509Z,17.8
2018-09-12T23:20:42.447Z,17.8
2018-09-12T23:21:49.391Z,17.8
2018-09-12T23:22:56.615Z,17.8
2018-09-12T23:24:03.558Z,17.8
2018-09-12T23:25:10.770Z,17.7
2018-09-12T23:26:17.982Z,17.7
2018-09-12T23:27:25.229Z,17.7
2018-09-12T23:28:32.444Z,17.7
2018-09-12T23:29:39.658Z,17.7
2018-09-12T23:30:46.873Z,17.7
2018-09-12T23:31:53.824Z,17.7
2018-09-12T23:33:00.769Z,17.7
2018-09-12T23:34:07.985Z,17.7
2018-09-12T23:35:15.199Z,17.6
2018-09-12T23:36:22.409Z,17.6
2018-09-12T23:37:29.350Z,17.6
2018-09-12T23:38:36.299Z,17.6
2018-09-12T23:39:43.741Z,17.6
2018-09-12T23:40:50.938Z,17.6
2018-09-12T23:41:58.196Z,17.6
2018-09-12T23:43:05.405Z,17.6
2018-09-12T23:44:12.619Z,17.6
2018-09-12T23:45:19.829Z,17.6
2018-09-12T23:46:27.043Z,17.6
2018-09-12T23:47:33.715Z,17.6
2018-09-12T23:48:40.929Z,17.6
2018-09-12T23:49:48.153Z,17.6
2018-09-12T23:50:55.367Z,17.6
2018-09-12T23:52:02.305Z,17.6
2018-09-12T23:53:09.527Z,17.5
2018-09-12T23:54:16.749Z,17.5
2018-09-12T23:55:23.990Z,17.5
2018-09-12T23:56:31.200Z,17.4
2018-09-12T23:57:38.436Z,17.4
2018-09-12T23:58:45.646Z,17.5
2018-09-12T23:59:52.587Z,17.4
